createdAt,value
2019-05-09T00:00:29.864Z,8.20
2019-05-09T00:02:57.974Z,8.53
2019-05-09T00:05:26.097Z,7.60
2019-05-09T00:07:54.710Z,7.72
2019-05-09T00:10:38.086Z,8.50
2019-05-09T00:12:54.066Z,8.50
2019-05-09T00:15:24.174Z,8.20
2019-05-09T00:17:53.283Z,8.05
2019-05-09T00:20:43.460Z,8.60
2019-05-09T00:23:13.399Z,8.43
2019-05-09T00:25:43.278Z,8.70
2019-05-09T00:28:13.669Z,9.13
2019-05-09T00:31:16.773Z,9.13
2019-05-09T00:33:49.239Z,9.83
2019-05-09T00:36:17.965Z,10.23
2019-05-09T00:38:46.411Z,10.55
2019-05-09T00:43:48.415Z,10.88
2019-05-09T00:46:23.623Z,11.50
2019-05-09T00:49:00.835Z,11.20
2019-05-09T00:51:29.364Z,12.00
2019-05-09T00:53:57.920Z,12.00
2019-05-09T00:56:27.088Z,12.47
2019-05-09T00:58:55.291Z,12.30
2019-05-09T01:01:24.313Z,12.80
2019-05-09T01:03:53.542Z,12.73
2019-05-09T01:08:50.711Z,13.70
2019-05-09T01:11:19.519Z,14.10
2019-05-09T01:16:16.484Z,13.70
2019-05-09T01:18:46.582Z,14.00
2019-05-09T01:21:14.764Z,14.70
2019-05-09T01:23:43.575Z,15.63
2019-05-09T01:26:13.199Z,15.43
2019-05-09T01:28:41.492Z,16.13
2019-05-09T01:31:09.591Z,16.07
2019-05-09T01:33:53.434Z,16.10
2019-05-09T01:36:23.505Z,16.65
2019-05-09T01:41:27.888Z,18.10
2019-05-09T01:43:50.241Z,17.48
2019-05-09T01:46:18.824Z,16.95
2019-05-09T01:48:47.271Z,17.57
2019-05-09T01:51:16.003Z,18.30
2019-05-09T01:53:50.221Z,17.67
2019-05-09T01:56:18.607Z,17.57
2019-05-09T02:01:15.292Z,16.95
2019-05-09T02:03:44.315Z,17.70
2019-05-09T02:06:14.232Z,16.85
2019-05-09T02:08:43.834Z,18.00
2019-05-09T02:11:13.370Z,18.27
2019-05-09T02:13:44.066Z,17.35
2019-05-09T02:16:30.034Z,16.17
2019-05-09T02:19:07.913Z,15.33
2019-05-09T02:21:36.315Z,14.68
2019-05-09T02:24:04.609Z,15.48
2019-05-09T02:26:33.536Z,13.50
2019-05-09T02:29:03.240Z,12.13
2019-05-09T02:31:35.103Z,12.70
2019-05-09T02:34:04.621Z,13.68
2019-05-09T02:36:31.678Z,12.65
2019-05-09T02:38:59.750Z,10.65
2019-05-09T02:43:58.555Z,11.40
2019-05-09T02:46:34.850Z,9.50
2019-05-09T02:49:03.017Z,9.40
2019-05-09T02:51:32.405Z,10.90
2019-05-09T02:54:00.525Z,10.30
2019-05-09T02:56:29.639Z,10.23
2019-05-09T02:59:13.868Z,10.10
2019-05-09T03:01:50.628Z,10.40
2019-05-09T03:04:19.131Z,10.40
2019-05-09T03:06:49.220Z,10.90
2019-05-09T03:09:19.054Z,10.40
2019-05-09T03:11:48.523Z,11.80
2019-05-09T03:14:19.399Z,10.25
2019-05-09T03:16:49.153Z,9.45
2019-05-09T03:19:19.391Z,9.65
2019-05-09T03:21:54.380Z,9.60
2019-05-09T03:26:59.422Z,10.20
2019-05-09T03:29:39.446Z,10.07
2019-05-09T03:32:09.101Z,10.32
2019-05-09T03:34:38.443Z,9.75
2019-05-09T03:37:08.516Z,9.20
2019-05-09T03:39:37.704Z,9.13
2019-05-09T03:42:07.893Z,10.13
2019-05-09T03:44:38.337Z,9.40
2019-05-09T03:47:30.965Z,8.90
2019-05-09T03:52:42.578Z,9.20
2019-05-09T03:55:13.380Z,8.58
2019-05-09T03:57:47.636Z,8.87
2019-05-09T04:00:17.903Z,8.80
2019-05-09T04:05:13.626Z,8.48
2019-05-09T04:07:41.799Z,8.30
2019-05-09T04:10:10.288Z,8.45
2019-05-09T04:12:52.912Z,8.03
2019-05-09T04:15:09.087Z,8.70
2019-05-09T04:20:13.520Z,8.30
2019-05-09T04:22:41.652Z,7.50
2019-05-09T04:25:11.945Z,7.87
2019-05-09T04:27:41.321Z,8.65
2019-05-09T04:30:09.673Z,8.60
2019-05-09T04:32:38.185Z,8.45
2019-05-09T04:35:08.111Z,8.80
2019-05-09T04:40:04.968Z,9.38
2019-05-09T04:42:34.989Z,9.40
2019-05-09T04:45:17.717Z,9.38
2019-05-09T04:47:47.177Z,9.55
2019-05-09T04:50:23.555Z,9.85
2019-05-09T04:52:47.390Z,9.78
2019-05-09T04:55:18.090Z,10.23
2019-05-09T04:57:45.985Z,10.50
2019-05-09T05:00:18.391Z,10.70
2019-05-09T05:05:18.532Z,10.83
2019-05-09T05:07:48.067Z,12.60
2019-05-09T05:10:18.407Z,12.43
2019-05-09T05:12:48.390Z,13.50
2019-05-09T05:15:17.929Z,13.60
2019-05-09T05:20:19.877Z,13.90
2019-05-09T05:22:58.095Z,13.38
2019-05-09T05:25:27.920Z,13.00
2019-05-09T05:27:58.072Z,14.00
2019-05-09T05:33:00.840Z,14.15
2019-05-09T05:35:48.325Z,13.45
2019-05-09T05:38:17.631Z,13.05
2019-05-09T05:40:47.632Z,12.33
2019-05-09T05:43:17.383Z,12.80
2019-05-09T05:45:55.733Z,13.10
2019-05-09T05:48:27.931Z,14.30
2019-05-09T05:50:57.764Z,13.60
2019-05-09T05:53:27.732Z,14.83
2019-05-09T05:55:57.870Z,14.47
2019-05-09T05:58:28.190Z,14.80
2019-05-09T06:00:58.674Z,14.70
2019-05-09T06:03:28.271Z,15.70
2019-05-09T06:05:58.236Z,14.50
2019-05-09T06:08:27.573Z,14.70
2019-05-09T06:10:57.643Z,15.18
2019-05-09T06:15:54.173Z,16.50
2019-05-09T06:18:22.304Z,15.25
2019-05-09T06:23:19.451Z,14.50
2019-05-09T06:25:48.649Z,15.05
2019-05-09T06:28:18.174Z,14.43
2019-05-09T06:30:47.694Z,14.43
2019-05-09T06:33:18.038Z,16.27
2019-05-09T06:38:14.780Z,14.55
2019-05-09T06:40:43.306Z,15.90
2019-05-09T06:43:18.784Z,16.07
2019-05-09T06:46:04.899Z,16.10
2019-05-09T06:51:02.924Z,15.80
2019-05-09T06:53:31.067Z,15.70
2019-05-09T06:58:34.037Z,15.80
2019-05-09T07:01:24.663Z,14.70
2019-05-09T07:03:57.554Z,14.50
2019-05-09T07:09:12.161Z,14.60
2019-05-09T07:11:40.269Z,13.30
2019-05-09T07:14:32.313Z,13.10
2019-05-09T07:19:28.035Z,12.85
2019-05-09T07:22:20.717Z,13.10
2019-05-09T07:25:06.563Z,12.82
2019-05-09T07:30:03.335Z,12.78
2019-05-09T07:32:34.915Z,12.37
2019-05-09T07:35:03.161Z,10.28
2019-05-09T07:37:31.880Z,10.80
2019-05-09T07:40:00.027Z,10.10
2019-05-09T07:42:28.676Z,10.70
2019-05-09T07:44:59.188Z,10.38
2019-05-09T07:49:55.578Z,13.05
2019-05-09T07:52:24.248Z,10.82
2019-05-09T07:54:52.317Z,9.80
2019-05-09T07:57:21.057Z,9.10
2019-05-09T07:59:49.448Z,8.95
2019-05-09T08:04:48.668Z,8.30
2019-05-09T08:07:17.613Z,7.67
2019-05-09T08:09:47.570Z,8.70
2019-05-09T08:12:17.978Z,7.53
2019-05-09T08:15:02.922Z,6.20
2019-05-09T08:17:18.116Z,6.83
2019-05-09T08:19:48.406Z,6.90
2019-05-09T08:22:21.312Z,6.35
2019-05-09T08:24:48.320Z,7.08
2019-05-09T08:27:17.502Z,6.78
2019-05-09T08:29:47.851Z,6.40
2019-05-09T08:32:17.956Z,23.15
2019-05-09T08:34:48.262Z,58.00
2019-05-09T08:37:17.554Z,6.47
2019-05-09T08:39:48.505Z,5.78
2019-05-09T08:42:17.989Z,5.85
2019-05-09T08:44:48.267Z,5.30
2019-05-09T08:47:18.470Z,4.83
2019-05-09T08:50:07.986Z,5.90
2019-05-09T08:52:37.645Z,5.20
2019-05-09T08:55:08.102Z,4.72
2019-05-09T09:00:04.370Z,5.23
2019-05-09T09:02:33.046Z,4.65
2019-05-09T09:05:02.226Z,4.80
2019-05-09T09:07:30.816Z,4.85
2019-05-09T09:09:59.827Z,4.42
2019-05-09T09:12:34.072Z,4.40
2019-05-09T09:14:59.245Z,4.92
2019-05-09T09:17:28.142Z,4.90
2019-05-09T09:19:58.255Z,4.40
2019-05-09T09:22:28.413Z,4.30
2019-05-09T09:27:27.636Z,4.05
2019-05-09T09:29:58.500Z,4.10
2019-05-09T09:32:28.074Z,3.80
2019-05-09T09:34:58.537Z,4.05
2019-05-09T09:37:28.314Z,3.70
2019-05-09T09:39:58.195Z,3.80
2019-05-09T09:42:28.177Z,4.53
2019-05-09T09:44:58.324Z,4.50
2019-05-09T09:49:55.176Z,4.00
2019-05-09T09:52:23.803Z,3.80
2019-05-09T09:57:20.449Z,3.27
2019-05-09T10:02:39.994Z,3.10
2019-05-09T10:05:08.641Z,3.83
2019-05-09T10:10:07.853Z,3.17
2019-05-09T10:12:43.575Z,3.00
2019-05-09T10:15:18.886Z,3.10
2019-05-09T10:17:52.704Z,3.30
2019-05-09T10:20:29.276Z,3.30
2019-05-09T10:23:03.337Z,3.13
2019-05-09T10:25:29.892Z,2.55
2019-05-09T10:27:59.134Z,3.33
2019-05-09T10:30:30.875Z,2.63
2019-05-09T10:32:59.130Z,2.67
2019-05-09T10:35:27.978Z,2.70
2019-05-09T10:37:58.796Z,2.20
2019-05-09T10:42:59.056Z,2.30
2019-05-09T10:50:45.196Z,1.90
2019-05-09T10:53:11.788Z,2.00
2019-05-09T10:55:40.229Z,2.50
2019-05-09T10:58:08.407Z,2.00
2019-05-09T11:00:39.223Z,1.80
2019-05-09T11:03:08.717Z,1.85
2019-05-09T11:05:37.021Z,2.00
2019-05-09T11:08:07.933Z,1.92
2019-05-09T11:13:03.518Z,2.10
2019-05-09T11:15:32.036Z,2.60
2019-05-09T11:18:00.088Z,2.25
2019-05-09T11:20:28.597Z,2.47
2019-05-09T11:22:58.179Z,2.50
2019-05-09T11:25:27.910Z,12.17
2019-05-09T11:28:10.029Z,7.35
2019-05-09T11:32:54.749Z,2.60
2019-05-09T11:35:23.114Z,3.08
2019-05-09T11:40:21.014Z,2.60
2019-05-09T11:42:49.046Z,2.60
2019-05-09T11:47:46.739Z,2.90
2019-05-09T11:50:15.083Z,3.22
2019-05-09T11:52:43.523Z,2.72
2019-05-09T11:55:28.654Z,2.90
2019-05-09T11:57:41.341Z,3.30
2019-05-09T12:00:09.862Z,3.00
2019-05-09T12:02:38.459Z,2.90
2019-05-09T12:05:08.764Z,2.80
2019-05-09T12:07:37.894Z,2.90
2019-05-09T12:10:07.782Z,3.73
2019-05-09T12:12:38.797Z,3.05
2019-05-09T12:15:08.586Z,2.50
2019-05-09T12:17:51.071Z,2.30
2019-05-09T12:20:12.189Z,2.40
2019-05-09T12:22:36.606Z,2.30
2019-05-09T12:25:04.995Z,2.20
2019-05-09T12:27:33.651Z,1.80
2019-05-09T12:30:01.778Z,1.60
2019-05-09T12:32:29.916Z,1.77
2019-05-09T12:34:58.822Z,1.90
2019-05-09T12:37:28.165Z,1.90
2019-05-09T12:39:58.576Z,2.10
2019-05-09T12:42:28.951Z,1.92
2019-05-09T12:44:58.986Z,2.08
2019-05-09T12:47:29.054Z,2.00
2019-05-09T12:52:28.595Z,2.10
2019-05-09T12:54:58.140Z,2.00
2019-05-09T12:57:32.340Z,2.00
2019-05-09T13:00:00.326Z,2.20
2019-05-09T13:02:28.710Z,2.00
2019-05-09T13:04:57.446Z,2.33
2019-05-09T13:07:29.469Z,1.90
2019-05-09T13:09:58.076Z,1.98
2019-05-09T13:12:25.391Z,2.62
2019-05-09T13:14:53.420Z,2.45
2019-05-09T13:17:42.953Z,2.00
2019-05-09T13:20:11.909Z,2.20
2019-05-09T13:22:40.276Z,2.27
2019-05-09T13:25:09.601Z,2.10
2019-05-09T13:27:38.919Z,2.00
2019-05-09T13:30:08.379Z,1.57
2019-05-09T13:32:37.512Z,1.80
2019-05-09T13:35:06.635Z,1.80
2019-05-09T13:37:37.974Z,1.87
2019-05-09T13:40:04.990Z,1.90
2019-05-09T13:42:33.066Z,2.10
2019-05-09T13:45:01.475Z,4.75
2019-05-09T13:47:31.285Z,2.40
2019-05-09T13:50:00.489Z,2.02
2019-05-09T13:52:28.656Z,2.42
2019-05-09T13:54:58.587Z,2.00
2019-05-09T13:57:27.777Z,2.10
2019-05-09T13:59:58.506Z,2.50
2019-05-09T14:02:29.097Z,2.00
2019-05-09T14:04:58.350Z,2.53
2019-05-09T14:09:54.991Z,2.45
2019-05-09T14:12:23.478Z,2.10
2019-05-09T14:17:39.527Z,2.20
2019-05-09T14:19:50.998Z,2.30
2019-05-09T14:22:20.187Z,2.62
2019-05-09T14:24:48.680Z,2.22
2019-05-09T14:27:18.724Z,2.00
2019-05-09T14:29:49.516Z,2.20
2019-05-09T14:32:17.640Z,16.50
2019-05-09T14:34:48.040Z,2.20
2019-05-09T14:37:17.935Z,1.90
2019-05-09T14:39:55.816Z,2.20
2019-05-09T14:42:15.498Z,1.50
2019-05-09T14:44:43.751Z,1.70
2019-05-09T14:47:12.137Z,2.05
2019-05-09T14:49:44.235Z,1.80
2019-05-09T14:52:10.021Z,1.70
2019-05-09T14:54:39.761Z,1.80
2019-05-09T14:59:45.913Z,2.30
2019-05-09T15:02:14.657Z,2.20
2019-05-09T15:07:11.810Z,1.80
2019-05-09T15:09:40.426Z,1.85
2019-05-09T15:14:38.315Z,2.03
2019-05-09T15:17:08.734Z,1.80
2019-05-09T15:19:38.585Z,1.67
2019-05-09T15:22:08.343Z,1.60
2019-05-09T15:24:35.872Z,1.42
2019-05-09T15:27:04.323Z,2.02
2019-05-09T15:29:32.471Z,1.80
2019-05-09T15:32:05.543Z,1.85
2019-05-09T15:34:31.118Z,1.80
2019-05-09T15:36:59.376Z,1.90
2019-05-09T15:39:30.111Z,1.80
2019-05-09T15:42:07.446Z,7.75
2019-05-09T15:44:36.117Z,1.80
2019-05-09T15:47:10.095Z,2.05
2019-05-09T15:49:38.598Z,2.07
2019-05-09T15:52:07.387Z,1.60
2019-05-09T15:54:38.546Z,1.63
2019-05-09T15:57:08.879Z,1.50
2019-05-09T15:59:41.479Z,1.60
2019-05-09T16:04:40.520Z,1.85
2019-05-09T16:07:09.322Z,1.70
2019-05-09T16:09:37.902Z,1.70
2019-05-09T16:12:14.739Z,1.82
2019-05-09T16:17:19.279Z,1.80
2019-05-09T16:19:48.345Z,1.90
2019-05-09T16:22:18.954Z,1.60
2019-05-09T16:24:48.588Z,1.40
2019-05-09T16:27:17.042Z,1.60
2019-05-09T16:29:45.160Z,2.20
2019-05-09T16:32:13.290Z,2.33
2019-05-09T16:34:41.348Z,3.87
2019-05-09T16:37:09.548Z,1.90
2019-05-09T16:39:37.961Z,1.60
2019-05-09T16:42:06.501Z,2.58
2019-05-09T16:47:03.058Z,2.10
2019-05-09T16:49:32.168Z,1.70
2019-05-09T16:52:00.675Z,1.50
2019-05-09T16:54:33.031Z,2.02
2019-05-09T16:57:01.182Z,1.80
2019-05-09T16:59:29.304Z,1.42
2019-05-09T17:01:57.816Z,1.10
2019-05-09T17:04:27.783Z,1.30
2019-05-09T17:09:24.785Z,1.60
2019-05-09T17:11:52.821Z,1.10
2019-05-09T17:16:52.749Z,2.60
2019-05-09T17:19:19.881Z,3.70
2019-05-09T17:21:53.234Z,3.20
2019-05-09T17:24:21.808Z,2.20
2019-05-09T17:26:50.510Z,1.60
2019-05-09T17:29:19.421Z,1.60
2019-05-09T17:31:48.849Z,2.10
2019-05-09T17:34:18.043Z,2.17
2019-05-09T17:36:46.583Z,1.40
2019-05-09T17:39:14.814Z,1.50
2019-05-09T17:44:11.627Z,1.12
2019-05-09T17:46:39.727Z,1.10
2019-05-09T17:49:08.392Z,1.10
2019-05-09T17:51:36.611Z,1.20
2019-05-09T17:54:07.820Z,1.60
2019-05-09T17:56:37.675Z,3.50
2019-05-09T17:59:05.393Z,2.43
2019-05-09T18:01:33.613Z,1.22
2019-05-09T18:04:02.875Z,1.77
2019-05-09T18:06:31.265Z,1.90
2019-05-09T18:08:59.730Z,2.10
2019-05-09T18:11:27.884Z,1.93
2019-05-09T18:13:56.056Z,2.05
2019-05-09T18:16:24.566Z,4.00
2019-05-09T18:21:23.096Z,2.40
2019-05-09T18:23:51.159Z,2.15
2019-05-09T18:28:48.033Z,1.55
2019-05-09T18:31:16.719Z,6.80
2019-05-09T18:33:53.475Z,2.37
2019-05-09T18:36:21.636Z,1.77
2019-05-09T18:38:50.330Z,1.70
2019-05-09T18:41:18.675Z,1.92
2019-05-09T18:43:47.943Z,2.50
2019-05-09T18:48:45.348Z,2.30
2019-05-09T18:51:13.549Z,2.00
2019-05-09T18:53:41.873Z,2.10
2019-05-09T18:56:10.221Z,2.30
2019-05-09T18:58:38.829Z,2.00
2019-05-09T19:01:07.143Z,2.30
2019-05-09T19:03:35.140Z,2.10
2019-05-09T19:08:31.255Z,2.40
2019-05-09T19:10:59.624Z,2.40
2019-05-09T19:13:27.651Z,2.30
2019-05-09T19:16:02.232Z,2.20
2019-05-09T19:18:48.069Z,2.23
2019-05-09T19:21:23.071Z,2.20
2019-05-09T19:23:51.101Z,2.40
2019-05-09T19:26:37.463Z,2.17
2019-05-09T19:29:08.978Z,2.00
2019-05-09T19:31:37.866Z,1.80
2019-05-09T19:36:33.992Z,1.90
2019-05-09T19:39:02.156Z,1.80
2019-05-09T19:43:58.326Z,1.70
2019-05-09T19:46:26.619Z,1.70
2019-05-09T19:48:54.653Z,1.70
2019-05-09T19:51:22.676Z,1.70
2019-05-09T19:53:50.712Z,1.92
2019-05-09T19:56:18.724Z,1.85
2019-05-09T19:58:46.797Z,1.80
2019-05-09T20:03:42.913Z,1.95
2019-05-09T20:06:11.276Z,1.90
2019-05-09T20:08:39.815Z,2.02
2019-05-09T20:11:22.408Z,1.70
2019-05-09T20:14:08.152Z,1.90
2019-05-09T20:16:38.621Z,2.00
2019-05-09T20:19:07.284Z,1.70
2019-05-09T20:21:36.446Z,1.87
2019-05-09T20:26:33.594Z,1.90
2019-05-09T20:29:01.864Z,1.85
2019-05-09T20:31:29.959Z,1.80
2019-05-09T20:33:58.107Z,2.20
2019-05-09T20:36:26.664Z,1.82
2019-05-09T20:38:55.386Z,1.80
2019-05-09T20:41:24.344Z,1.80
2019-05-09T20:46:21.242Z,2.27
2019-05-09T20:48:49.622Z,2.10
2019-05-09T20:51:18.574Z,1.87
2019-05-09T20:53:47.235Z,1.90
2019-05-09T20:56:16.210Z,1.90
2019-05-09T20:58:44.711Z,1.90
2019-05-09T21:01:12.969Z,1.80
2019-05-09T21:03:41.631Z,1.95
2019-05-09T21:08:39.024Z,1.90
2019-05-09T21:11:07.314Z,1.60
2019-05-09T21:13:47.925Z,1.95
2019-05-09T21:16:06.982Z,1.70
2019-05-09T21:21:03.965Z,1.60
2019-05-09T21:23:32.724Z,1.70
2019-05-09T21:28:31.058Z,1.40
2019-05-09T21:30:59.439Z,1.40
2019-05-09T21:33:27.730Z,1.52
2019-05-09T21:36:29.914Z,1.60
2019-05-09T21:38:57.993Z,1.60
2019-05-09T21:41:26.441Z,1.40
2019-05-09T21:46:23.331Z,1.50
2019-05-09T21:48:52.027Z,1.50
2019-05-09T21:51:20.736Z,1.70
2019-05-09T21:53:49.117Z,1.60
2019-05-09T21:58:46.288Z,2.10
2019-05-09T22:01:16.226Z,2.00
2019-05-09T22:03:44.822Z,2.25
2019-05-09T22:06:13.420Z,2.12
2019-05-09T22:08:41.585Z,2.00
2019-05-09T22:11:09.778Z,2.40
2019-05-09T22:13:38.400Z,2.60
2019-05-09T22:18:35.023Z,2.30
2019-05-09T22:21:03.276Z,2.40
2019-05-09T22:23:32.477Z,2.30
2019-05-09T22:26:01.322Z,2.22
2019-05-09T22:30:58.861Z,2.20
2019-05-09T22:33:27.433Z,1.90
2019-05-09T22:35:56.035Z,2.40
2019-05-09T22:38:24.510Z,2.10
2019-05-09T22:40:52.865Z,2.72
2019-05-09T22:43:20.862Z,2.90
2019-05-09T22:45:49.512Z,2.77
2019-05-09T22:50:46.474Z,3.20
2019-05-09T22:53:14.567Z,2.70
2019-05-09T22:55:43.016Z,2.58
2019-05-09T22:58:11.904Z,3.20
2019-05-09T23:00:40.271Z,3.08
2019-05-09T23:03:08.445Z,3.30
2019-05-09T23:05:38.092Z,3.25
2019-05-09T23:10:35.429Z,4.10
2019-05-09T23:13:03.562Z,4.30
2019-05-09T23:15:32.023Z,4.70
2019-05-09T23:18:02.350Z,5.03
2019-05-09T23:20:48.146Z,5.55
2019-05-09T23:23:29.730Z,6.70
2019-05-09T23:25:58.821Z,7.35
2019-05-09T23:28:27.500Z,6.17
2019-05-09T23:33:26.916Z,5.50
2019-05-09T23:35:55.575Z,4.15
2019-05-09T23:38:24.116Z,5.45
2019-05-09T23:40:52.276Z,6.75
2019-05-09T23:45:48.626Z,9.60
2019-05-09T23:48:17.815Z,8.18
2019-05-09T23:50:46.929Z,8.60
2019-05-09T23:53:19.327Z,8.73
2019-05-09T23:56:06.265Z,8.33
2019-05-09T23:58:52.196Z,7.80
